Aérodrome :
LOGIN :

S'inscrire | Disclaimer

   EN    FR    IT 

 










Légende :    VFR   VFR Marginal   IFR   IFR Intensif   IFR Très Intensif
Visi : 
Plafond : 
>= 8 km
>= 3000ft
5 à 8 km
1000 à 3000 ft
1500m à 5 km
500 à 1000 ft
800 à 1500m
200 à 500 ft
< 800m
< 200 ft
Symboles :   Orages  Brouillard  Fortes neiges  Fortes précipitations  Vent > 20 kt
SIGMETs :   Divers  Orages  Givrage  Turbulence  Onde Orograph.  Cendres Volcan.






- Altitude de l'aérodrome : 681 ft
- Code IATA : LBA


EGNM - Leeds Bradford

DERNIER METAR :
  • 272320Z 19007KT 9999 -SHRA BKN010 04/02 Q0985

METARs EXPIRÉS :
  • 272250Z 16010KT 9999 -SHRA SCT016 03/02 Q0986
  • 272220Z 15010KT 9999 SCT030 03/02 Q0986
  • 272150Z 15007KT 9999 SCT023 03/02 Q0987
  • 272120Z 15006KT 9999 SCT016 03/02 Q0987

TAF TAF EGNM
Valide du 28 à 00h jusqu'au 29 à 00h UTC


272259Z 2800/2824 16010KT 9999 FEW015
BECMG 2800/2803 23015KT
TEMPO 2800/2803 6000 RA SHRA BKN004
TEMPO 2803/2824 26018G30KT
TEMPO 2803/2817 4000 SHSN BKN004
ATIS : +44 113 250 9696 (x2489)



MET'MAP, la Météo Aéronautique d'un coup d'oeil ! - Copyright ORBIFLY Décembre 2007 - Disclaimer

ORBIFLY MET'MAP TEAM :

Programmation & Développement : Alexandra Zaïnal
Sur une idée originale de : Baudouin d'Aumeries
Assistance à la programmation : Marc-Olivier Méhu
Soutien technique & logistique : Manuel Goepfert

Contact : metmap@orbifly.com




SOURCES & CREDITS :

   NOAA